Weather reports worldwide

Advertisment
Cazalla de la Sierra, Spain (8392): temperature & dewpoint: 10.09.2019 05:00:00 - 16.09.2019 05:00:00 (CEST)Cazalla de la Sierra, Spain (8392): wind speed & gusts: 10.09.2019 05:00:00 - 16.09.2019 05:00:00 (CEST)Cazalla de la Sierra, Spain (8392): wind direction: 10.09.2019 05:00:00 - 16.09.2019 05:00:00 (CEST)Cazalla de la Sierra, Spain (8392): reduced air pressure: 10.09.2019 05:00:00 - 16.09.2019 05:00:00 (CEST)Cazalla de la Sierra, Spain (8392): precipitation: 10.09.2019 05:00:00 - 16.09.2019 05:00:00 (CEST)
Date & Time tt [°C] td [°C] ff [km/h] ff [kn] fx [km/h] fx [kn] dd ppp [hPa] rr [mm]
16.09.2019 05:00:00 - - - - - - - - -
16.09.2019 04:00:00 16,1 12,8 0 0 0 0 N 1018,2 0,0
16.09.2019 03:00:00 16,6 13,2 0 0 3 2 N 1018,4 0,0
16.09.2019 02:00:00 17,3 13,7 0 0 4 2 N 1018,3 -
16.09.2019 01:00:00 18,1 14,0 1 1 4 2 ESE 1018,2 0,0
16.09.2019 00:00:00 19,3 13,5 4 2 8 5 W 1018,0 0,0
15.09.2019 23:00:00 20,8 13,5 4 2 13 7 WNW 1017,5 0,0
15.09.2019 22:00:00 22,0 12,8 2 1 9 5 WSW 1016,8 0,0
15.09.2019 21:00:00 23,0 11,4 2 1 15 8 W 1015,9 0,0
15.09.2019 20:00:00 24,0 11,3 5 3 16 9 WSW 1015,6 -
15.09.2019 19:00:00 24,6 9,7 7 4 20 11 SW 1015,4 0,0
15.09.2019 18:00:00 26,6 10,3 8 5 23 13 SW 1014,6 0,0
15.09.2019 17:00:00 26,0 8,9 5 3 20 11 W 1014,8 0,0
15.09.2019 16:00:00 27,4 9,7 6 4 21 11 WSW 1015,1 0,0
15.09.2019 15:00:00 27,1 10,8 3 2 16 9 WSW 1015,3 0,0
15.09.2019 14:00:00 25,4 9,7 4 2 16 9 SW 1016,1 -
15.09.2019 13:00:00 23,4 9,8 9 5 14 8 W 1017,3 0,0
15.09.2019 12:00:00 22,7 10,2 6 3 15 8 W 1017,3 0,0
15.09.2019 11:00:00 22,0 10,2 3 2 9 5 WSW 1017,4 0,0
15.09.2019 10:00:00 20,4 12,3 1 0 6 4 NNE 1017,5 0,0
15.09.2019 09:00:00 16,8 13,0 1 1 7 4 E 1017,8 0,0
15.09.2019 08:00:00 15,1 12,2 3 2 6 3 E 1018,3 -
15.09.2019 07:00:00 15,4 12,3 0 0 5 3 ESE 1018,3 0,0
15.09.2019 06:00:00 15,8 12,3 3 2 7 4 E 1017,9 0,0
15.09.2019 05:00:00 16,0 12,5 3 2 6 3 SE 1017,8 0,0
15.09.2019 04:00:00 16,2 12,5 3 1 6 3 ESE 1018,1 0,0
15.09.2019 03:00:00 16,1 12,6 3 1 5 3 E 1018,4 0,0
15.09.2019 02:00:00 16,6 12,7 3 1 5 3 ESE 1018,4 -
15.09.2019 01:00:00 17,3 13,3 2 1 3 2 ESE 1018,6 0,0
15.09.2019 00:00:00 17,3 12,6 3 1 5 3 SE 1018,6 0,0
14.09.2019 23:00:00 18,4 11,9 1 1 5 3 SSW 1018,5 0,0
14.09.2019 22:00:00 19,7 11,2 4 2 6 3 E 1017,4 0,0
14.09.2019 21:00:00 21,1 10,5 4 2 8 4 ESE 1016,8 0,0
14.09.2019 20:00:00 22,3 10,4 4 2 11 6 ENE 1016,3 -
14.09.2019 19:00:00 22,3 10,4 6 3 16 9 ENE 1016,2 0,0
14.09.2019 18:00:00 22,4 11,1 8 5 23 13 E 1016,1 0,0
14.09.2019 17:00:00 21,2 11,2 13 7 25 13 E 1016,7 0,0
14.09.2019 16:00:00 21,2 10,4 14 7 25 13 ESE 1016,8 0,0
14.09.2019 15:00:00 23,7 9,7 8 5 23 12 E 1016,7 0,0
14.09.2019 14:00:00 23,6 8,8 8 5 22 12 E 1017,2 -
14.09.2019 13:00:00 22,8 9,9 10 5 22 12 E 1017,7 0,0
14.09.2019 12:00:00 21,4 11,7 8 4 18 10 E 1018,6 0,0
14.09.2019 11:00:00 19,4 12,6 9 5 22 12 E 1019,0 0,0
14.09.2019 10:00:00 19,2 12,0 6 3 17 9 ESE 1018,7 0,0
14.09.2019 09:00:00 16,0 12,0 1 1 13 7 SSE 1019,1 0,0
14.09.2019 08:00:00 16,6 11,6 7 4 11 6 E 1018,4 -
14.09.2019 07:00:00 17,0 11,9 4 2 12 6 ESE 1018,0 0,0
14.09.2019 06:00:00 15,7 11,4 2 1 15 8 ESE 1018,1 0,0
14.09.2019 05:00:00 16,3 11,4 7 4 16 9 E 1018,0 0,0
14.09.2019 04:00:00 16,2 11,3 5 3 13 7 ESE 1018,9 0,0
14.09.2019 03:00:00 15,8 11,3 4 2 10 5 E 1019,5 0,0
14.09.2019 02:00:00 15,7 11,2 2 1 9 5 SE 1019,9 -
14.09.2019 01:00:00 16,1 11,7 6 3 16 9 ESE 1020,4 0,0
14.09.2019 00:00:00 16,3 11,7 5 3 11 6 ESE 1020,5 0,0
13.09.2019 23:00:00 16,1 12,1 2 1 20 11 ESE 1020,4 0,1
13.09.2019 22:00:00 16,0 12,0 6 3 18 10 N 1020,1 3,6
13.09.2019 21:00:00 17,0 13,0 5 3 16 9 NW 1020,6 0,5
13.09.2019 20:00:00 19,8 11,8 8 4 28 15 NNE 1018,6 -
13.09.2019 19:00:00 18,8 11,3 2 1 31 17 W 1018,1 3,5
13.09.2019 18:00:00 25,0 8,9 9 5 22 12 E 1015,8 0,0
13.09.2019 17:00:00 24,4 9,6 11 6 26 14 NE 1016,1 0,0
13.09.2019 16:00:00 23,5 10,5 15 8 29 15 ENE 1017,1 0,0
13.09.2019 15:00:00 19,9 10,0 15 8 28 15 ENE 1018,7 0,0
13.09.2019 14:00:00 20,8 10,3 14 8 33 18 ENE 1018,9 -
13.09.2019 13:00:00 21,9 10,6 13 7 31 17 ENE 1019,1 0,0
13.09.2019 12:00:00 20,8 9,7 18 10 31 17 E 1019,7 0,0
13.09.2019 11:00:00 19,0 10,0 16 8 37 20 ENE 1019,3 0,0
13.09.2019 10:00:00 18,7 9,2 15 8 27 15 ENE 1018,9 0,0
13.09.2019 09:00:00 18,1 9,4 9 5 22 12 ENE 1019,5 0,0
13.09.2019 08:00:00 18,2 9,8 9 5 22 12 ENE 1019,2 -
13.09.2019 07:00:00 18,3 9,9 14 8 26 14 ENE 1019,1 0,0
13.09.2019 06:00:00 18,3 9,4 9 5 24 13 ENE 1018,7 0,0
13.09.2019 05:00:00 18,6 9,0 11 6 21 11 ENE 1019,0 0,0
13.09.2019 04:00:00 18,7 9,2 11 6 21 12 E 1020,2 0,0
13.09.2019 03:00:00 18,6 9,7 7 4 27 15 E 1020,7 0,0
13.09.2019 02:00:00 19,1 9,6 14 8 29 16 ENE 1020,5 -
13.09.2019 01:00:00 19,8 9,7 15 8 40 22 E 1021,4 0,0
13.09.2019 00:00:00 21,1 9,9 16 8 32 17 E 1021,5 0,0
12.09.2019 23:00:00 21,2 9,4 10 5 22 12 E 1021,2 0,0
12.09.2019 22:00:00 21,6 8,5 10 5 21 12 E 1021,2 0,0
12.09.2019 21:00:00 22,5 8,3 10 5 23 12 ENE 1020,4 0,0
12.09.2019 20:00:00 23,9 8,0 13 7 35 19 E 1019,6 -
12.09.2019 19:00:00 24,8 7,8 16 9 34 18 ENE 1019,6 0,0
12.09.2019 18:00:00 25,9 8,0 15 8 33 18 E 1019,2 0,0
12.09.2019 17:00:00 26,8 8,3 12 7 35 19 E 1018,5 0,0
12.09.2019 16:00:00 26,3 8,8 14 8 33 18 E 1018,8 0,0
12.09.2019 15:00:00 26,5 8,5 14 8 37 20 ESE 1019,0 0,0
12.09.2019 14:00:00 26,4 8,4 15 8 40 22 E 1019,4 -
12.09.2019 13:00:00 25,4 8,4 18 10 41 22 E 1019,7 0,0
12.09.2019 12:00:00 23,8 9,4 14 8 42 23 ENE 1020,5 0,0
12.09.2019 11:00:00 22,0 8,8 16 9 35 19 ENE 1020,4 0,0
12.09.2019 10:00:00 19,3 7,7 16 9 36 19 ENE 1020,9 0,0
12.09.2019 09:00:00 16,5 6,8 4 2 11 6 N 1020,8 0,0
12.09.2019 08:00:00 16,0 5,6 3 2 11 6 ENE 1020,8 -
12.09.2019 07:00:00 16,5 4,5 5 3 17 9 E 1021,2 0,0
12.09.2019 06:00:00 16,6 2,9 10 6 19 10 ENE 1021,1 0,0
12.09.2019 05:00:00 17,1 2,7 11 6 24 13 ENE 1021,2 0,0
12.09.2019 04:00:00 18,0 2,7 10 6 24 13 E 1021,0 0,0
12.09.2019 03:00:00 18,8 3,4 9 5 28 15 ENE 1020,7 0,0
12.09.2019 02:00:00 20,0 4,1 12 6 42 23 E 1020,3 -
12.09.2019 01:00:00 21,0 5,0 14 8 35 19 E 1019,8 0,0
12.09.2019 00:00:00 21,9 4,5 13 7 27 15 ENE 1019,2 0,0
11.09.2019 23:00:00 23,2 4,6 17 9 33 18 E 1019,1 0,0
11.09.2019 22:00:00 24,3 4,1 12 6 26 14 E 1018,0 0,0
11.09.2019 21:00:00 24,8 4,5 8 5 22 12 E 1016,9 0,0
11.09.2019 20:00:00 25,4 4,5 13 7 26 14 E 1016,0 -
11.09.2019 19:00:00 25,6 4,6 13 7 32 17 ENE 1015,8 0,0
11.09.2019 18:00:00 27,3 5,0 13 7 33 18 ENE 1015,3 0,0
11.09.2019 17:00:00 26,9 5,8 13 7 36 20 NE 1015,7 0,0
11.09.2019 16:00:00 26,3 5,8 10 6 37 20 ENE 1016,0 0,0
11.09.2019 15:00:00 25,1 5,3 13 7 30 16 NNE 1016,8 0,0
11.09.2019 14:00:00 22,8 4,8 15 8 35 19 ENE 1018,0 -
11.09.2019 13:00:00 21,9 4,5 16 8 35 19 E 1018,7 0,0
11.09.2019 12:00:00 20,5 4,5 19 11 36 19 E 1019,0 0,0
11.09.2019 11:00:00 19,3 4,3 22 12 40 22 ENE 1018,7 0,0
11.09.2019 10:00:00 17,9 4,1 14 8 30 16 NE 1018,9 0,0
11.09.2019 09:00:00 16,2 3,2 13 7 29 15 ENE 1018,7 0,0
11.09.2019 08:00:00 14,9 2,5 14 8 29 15 E 1018,6 -
11.09.2019 07:00:00 14,9 2,1 9 5 19 10 E 1018,2 0,0
11.09.2019 06:00:00 15,3 1,1 5 3 14 7 ENE 1018,1 0,0
11.09.2019 05:00:00 15,8 0,4 4 2 16 9 NNE 1017,7 0,0
11.09.2019 04:00:00 16,8 -0,5 5 3 20 11 NE 1017,7 0,0
11.09.2019 03:00:00 17,6 -0,3 5 3 15 8 NE 1017,6 0,0
11.09.2019 02:00:00 18,1 -0,3 7 4 17 9 NNE 1017,2 -
11.09.2019 01:00:00 18,3 0,0 5 3 15 8 NE 1017,0 0,0
11.09.2019 00:00:00 19,0 -0,5 3 2 17 9 N 1017,0 0,0
10.09.2019 23:00:00 17,4 -1,2 1 1 9 5 WNW 1017,0 0,0
10.09.2019 22:00:00 18,7 -1,7 6 3 16 9 WNW 1015,8 0,0
10.09.2019 21:00:00 20,8 0,0 5 3 24 13 NNW 1014,7 0,0
10.09.2019 20:00:00 23,3 0,4 11 6 26 14 N 1013,5 -
10.09.2019 19:00:00 23,9 0,9 13 7 32 17 NNW 1013,2 0,0
10.09.2019 18:00:00 24,2 1,7 9 5 34 18 N 1013,0 0,0
10.09.2019 17:00:00 24,5 2,1 14 7 35 19 N 1013,3 0,0
10.09.2019 16:00:00 23,8 2,7 16 8 38 20 NNW 1013,7 0,0
10.09.2019 15:00:00 22,7 3,2 14 8 36 20 NW 1014,0 0,0
10.09.2019 14:00:00 21,7 5,1 13 7 37 20 N 1014,5 -
10.09.2019 13:00:00 20,8 6,4 13 7 37 20 NNW 1014,8 0,0
10.09.2019 12:00:00 19,7 8,1 13 7 36 20 NNW 1015,2 0,0
10.09.2019 11:00:00 - - - - - - - - -
10.09.2019 10:00:00 - - - - - - - - -
10.09.2019 09:00:00 - - - - - - - - -
10.09.2019 08:00:00 - - - - - - - - -
10.09.2019 07:00:00 - - - - - - - - -
10.09.2019 06:00:00 - - - - - - - - -
10.09.2019 05:00:00 - - - - - - - - -

tt = temperature
td = dewpoint
ff = wind speed
fx = gusts
dd = wind direction
ppp = reduced air pressure
rr = precipitation

Next stations